sensor_id;sensor_type;location;lat;lon;timestamp;temperature;humidity
22153;DHT22;11242;50.536;12.688;2022-11-13T00:01:37;-0.30;99.90
22153;DHT22;11242;50.536;12.688;2022-11-13T00:04:27;-0.20;99.90
22153;DHT22;11242;50.536;12.688;2022-11-13T00:07:18;-0.20;99.90
22153;DHT22;11242;50.536;12.688;2022-11-13T00:10:08;-0.20;99.90
22153;DHT22;11242;50.536;12.688;2022-11-13T00:12:56;-0.30;99.90
22153;DHT22;11242;50.536;12.688;2022-11-13T00:16:00;-0.30;99.90
22153;DHT22;11242;50.536;12.688;2022-11-13T00:18:50;-0.30;99.90
22153;DHT22;11242;50.536;12.688;2022-11-13T00:21:40;-0.30;99.90
22153;DHT22;11242;50.536;12.688;2022-11-13T00:24:29;-0.10;99.90
22153;DHT22;11242;50.536;12.688;2022-11-13T00:27:19;0.10;99.90
22153;DHT22;11242;50.536;12.688;2022-11-13T00:30:09;0.30;99.90
22153;DHT22;11242;50.536;12.688;2022-11-13T00:32:59;0.30;99.90
22153;DHT22;11242;50.536;12.688;2022-11-13T00:35:49;0.30;99.90
22153;DHT22;11242;50.536;12.688;2022-11-13T00:38:38;0.20;99.90
22153;DHT22;11242;50.536;12.688;2022-11-13T00:41:29;-0.10;99.90
22153;DHT22;11242;50.536;12.688;2022-11-13T00:44:18;-0.20;99.90
22153;DHT22;11242;50.536;12.688;2022-11-13T00:47:08;-0.30;99.90
22153;DHT22;11242;50.536;12.688;2022-11-13T00:49:58;-0.50;99.90
22153;DHT22;11242;50.536;12.688;2022-11-13T00:52:48;-0.50;99.90
22153;DHT22;11242;50.536;12.688;2022-11-13T00:55:38;-0.50;99.90
22153;DHT22;11242;50.536;12.688;2022-11-13T00:58:28;-0.50;99.90
22153;DHT22;11242;50.536;12.688;2022-11-13T01:01:19;-0.60;99.90
22153;DHT22;11242;50.536;12.688;2022-11-13T01:04:09;-0.50;99.90
22153;DHT22;11242;50.536;12.688;2022-11-13T01:06:59;-0.50;99.90
22153;DHT22;11242;50.536;12.688;2022-11-13T01:09:53;-0.60;99.90
22153;DHT22;11242;50.536;12.688;2022-11-13T01:12:47;-0.60;99.90
22153;DHT22;11242;50.536;12.688;2022-11-13T01:15:40;-0.70;99.90
22153;DHT22;11242;50.536;12.688;2022-11-13T01:18:30;-0.80;99.90
22153;DHT22;11242;50.536;12.688;2022-11-13T01:21:20;-0.80;99.90
22153;DHT22;11242;50.536;12.688;2022-11-13T01:24:09;-0.80;99.90
22153;DHT22;11242;50.536;12.688;2022-11-13T01:26:59;-0.90;99.90
22153;DHT22;11242;50.536;12.688;2022-11-13T01:29:48;-0.80;99.90
22153;DHT22;11242;50.536;12.688;2022-11-13T01:32:37;-0.80;99.90
22153;DHT22;11242;50.536;12.688;2022-11-13T01:35:26;-0.80;99.90
22153;DHT22;11242;50.536;12.688;2022-11-13T01:38:13;-0.90;99.90
22153;DHT22;11242;50.536;12.688;2022-11-13T01:41:02;-0.80;99.90
22153;DHT22;11242;50.536;12.688;2022-11-13T01:43:52;-0.80;99.90
22153;DHT22;11242;50.536;12.688;2022-11-13T01:47:01;-0.90;99.90
22153;DHT22;11242;50.536;12.688;2022-11-13T01:49:57;-0.90;99.90
22153;DHT22;11242;50.536;12.688;2022-11-13T01:52:47;-0.90;99.90
22153;DHT22;11242;50.536;12.688;2022-11-13T01:55:36;-1.00;99.90
22153;DHT22;11242;50.536;12.688;2022-11-13T01:58:26;-1.00;99.90
22153;DHT22;11242;50.536;12.688;2022-11-13T02:01:16;-1.00;99.90
22153;DHT22;11242;50.536;12.688;2022-11-13T02:04:06;-0.90;99.90
22153;DHT22;11242;50.536;12.688;2022-11-13T02:06:59;-0.90;99.90
22153;DHT22;11242;50.536;12.688;2022-11-13T02:09:49;-1.00;99.90
22153;DHT22;11242;50.536;12.688;2022-11-13T02:12:43;-1.00;99.90
22153;DHT22;11242;50.536;12.688;2022-11-13T02:15:34;-1.10;99.90
22153;DHT22;11242;50.536;12.688;2022-11-13T02:18:24;-1.10;99.90
22153;DHT22;11242;50.536;12.688;2022-11-13T02:21:49;-1.10;99.90
22153;DHT22;11242;50.536;12.688;2022-11-13T02:24:45;-1.10;99.90
22153;DHT22;11242;50.536;12.688;2022-11-13T02:30:25;-1.00;99.90
22153;DHT22;11242;50.536;12.688;2022-11-13T02:33:30;-1.00;99.90
22153;DHT22;11242;50.536;12.688;2022-11-13T02:36:23;-1.10;99.90
22153;DHT22;11242;50.536;12.688;2022-11-13T02:39:13;-0.90;99.90
22153;DHT22;11242;50.536;12.688;2022-11-13T02:42:03;-1.00;99.90
22153;DHT22;11242;50.536;12.688;2022-11-13T02:44:58;-1.10;99.90
22153;DHT22;11242;50.536;12.688;2022-11-13T02:47:48;-1.20;99.90
22153;DHT22;11242;50.536;12.688;2022-11-13T02:50:38;-1.30;99.90
22153;DHT22;11242;50.536;12.688;2022-11-13T02:53:27;-1.30;99.90
22153;DHT22;11242;50.536;12.688;2022-11-13T02:56:17;-1.20;99.90
22153;DHT22;11242;50.536;12.688;2022-11-13T02:59:06;-1.10;99.90
22153;DHT22;11242;50.536;12.688;2022-11-13T03:01:57;-1.00;99.90
22153;DHT22;11242;50.536;12.688;2022-11-13T03:04:46;-1.00;99.90
22153;DHT22;11242;50.536;12.688;2022-11-13T03:07:35;-1.00;99.90
22153;DHT22;11242;50.536;12.688;2022-11-13T03:10:22;-1.20;99.90
22153;DHT22;11242;50.536;12.688;2022-11-13T03:13:09;-1.20;99.90
22153;DHT22;11242;50.536;12.688;2022-11-13T03:16:09;-1.20;99.90
22153;DHT22;11242;50.536;12.688;2022-11-13T03:18:57;-1.20;99.90
22153;DHT22;11242;50.536;12.688;2022-11-13T03:21:44;-1.10;99.90
22153;DHT22;11242;50.536;12.688;2022-11-13T03:24:32;-0.80;99.90
22153;DHT22;11242;50.536;12.688;2022-11-13T03:27:19;-0.60;99.90
22153;DHT22;11242;50.536;12.688;2022-11-13T03:30:06;-0.70;99.90
22153;DHT22;11242;50.536;12.688;2022-11-13T03:32:55;-0.50;99.90
22153;DHT22;11242;50.536;12.688;2022-11-13T03:35:44;-0.30;99.90
22153;DHT22;11242;50.536;12.688;2022-11-13T03:38:32;-0.20;99.90
22153;DHT22;11242;50.536;12.688;2022-11-13T03:41:22;-0.10;99.90
22153;DHT22;11242;50.536;12.688;2022-11-13T03:44:11;-0.40;99.90
22153;DHT22;11242;50.536;12.688;2022-11-13T03:47:03;-0.70;99.90
22153;DHT22;11242;50.536;12.688;2022-11-13T03:49:53;-0.90;99.90
22153;DHT22;11242;50.536;12.688;2022-11-13T03:52:44;-0.90;99.90
22153;DHT22;11242;50.536;12.688;2022-11-13T03:55:33;-1.10;99.90
22153;DHT22;11242;50.536;12.688;2022-11-13T03:58:21;-1.10;99.90
22153;DHT22;11242;50.536;12.688;2022-11-13T04:01:08;-1.20;99.90
22153;DHT22;11242;50.536;12.688;2022-11-13T04:03:58;-1.30;99.90
22153;DHT22;11242;50.536;12.688;2022-11-13T04:06:47;-1.50;99.90
22153;DHT22;11242;50.536;12.688;2022-11-13T04:09:37;-1.60;99.90
22153;DHT22;11242;50.536;12.688;2022-11-13T04:12:26;-1.60;99.90
22153;DHT22;11242;50.536;12.688;2022-11-13T04:15:23;-1.50;99.90
22153;DHT22;11242;50.536;12.688;2022-11-13T04:18:12;-1.50;99.90
22153;DHT22;11242;50.536;12.688;2022-11-13T04:21:03;-1.40;99.90
22153;DHT22;11242;50.536;12.688;2022-11-13T04:23:52;-1.40;99.90
22153;DHT22;11242;50.536;12.688;2022-11-13T04:26:42;-1.50;99.90
22153;DHT22;11242;50.536;12.688;2022-11-13T04:29:30;-1.50;99.90
22153;DHT22;11242;50.536;12.688;2022-11-13T04:32:18;-1.50;99.90
22153;DHT22;11242;50.536;12.688;2022-11-13T04:35:08;-1.60;99.90
22153;DHT22;11242;50.536;12.688;2022-11-13T04:37:56;-1.60;99.90
22153;DHT22;11242;50.536;12.688;2022-11-13T04:40:43;-1.60;99.90
22153;DHT22;11242;50.536;12.688;2022-11-13T04:43:33;-1.50;99.90
22153;DHT22;11242;50.536;12.688;2022-11-13T04:46:22;-1.50;99.90
22153;DHT22;11242;50.536;12.688;2022-11-13T04:49:12;-1.60;99.90
22153;DHT22;11242;50.536;12.688;2022-11-13T04:52:01;-1.80;99.90
22153;DHT22;11242;50.536;12.688;2022-11-13T04:54:50;-1.90;99.90
22153;DHT22;11242;50.536;12.688;2022-11-13T04:57:40;-1.90;99.90
22153;DHT22;11242;50.536;12.688;2022-11-13T05:00:30;-1.70;99.90
22153;DHT22;11242;50.536;12.688;2022-11-13T05:03:19;-1.70;99.90
22153;DHT22;11242;50.536;12.688;2022-11-13T05:06:09;-1.60;99.90
22153;DHT22;11242;50.536;12.688;2022-11-13T05:08:59;-1.60;99.90
22153;DHT22;11242;50.536;12.688;2022-11-13T05:11:49;-1.70;99.90
22153;DHT22;11242;50.536;12.688;2022-11-13T05:14:39;-1.70;99.90
22153;DHT22;11242;50.536;12.688;2022-11-13T05:17:29;-1.70;99.90
22153;DHT22;11242;50.536;12.688;2022-11-13T05:20:18;-1.40;99.90
22153;DHT22;11242;50.536;12.688;2022-11-13T05:23:08;-1.20;99.90
22153;DHT22;11242;50.536;12.688;2022-11-13T05:26:08;-1.30;99.90
22153;DHT22;11242;50.536;12.688;2022-11-13T05:28:59;-1.50;99.90
22153;DHT22;11242;50.536;12.688;2022-11-13T05:31:49;-1.60;99.90
22153;DHT22;11242;50.536;12.688;2022-11-13T05:34:39;-1.70;99.90
22153;DHT22;11242;50.536;12.688;2022-11-13T05:37:27;-1.70;99.90
22153;DHT22;11242;50.536;12.688;2022-11-13T05:40:12;-1.80;99.90
22153;DHT22;11242;50.536;12.688;2022-11-13T05:42:56;-1.80;99.90
22153;DHT22;11242;50.536;12.688;2022-11-13T05:45:40;-1.70;99.90
22153;DHT22;11242;50.536;12.688;2022-11-13T05:48:24;-1.80;99.90
22153;DHT22;11242;50.536;12.688;2022-11-13T05:51:13;-1.90;99.90
22153;DHT22;11242;50.536;12.688;2022-11-13T05:53:58;-2.00;99.90
22153;DHT22;11242;50.536;12.688;2022-11-13T05:56:42;-1.90;99.90
22153;DHT22;11242;50.536;12.688;2022-11-13T05:59:26;-2.00;99.90
22153;DHT22;11242;50.536;12.688;2022-11-13T06:02:10;-2.00;99.90
22153;DHT22;11242;50.536;12.688;2022-11-13T06:04:54;-2.00;99.90
22153;DHT22;11242;50.536;12.688;2022-11-13T06:07:38;-2.00;99.90
22153;DHT22;11242;50.536;12.688;2022-11-13T06:10:22;-2.10;99.90
22153;DHT22;11242;50.536;12.688;2022-11-13T06:13:07;-2.10;99.90
22153;DHT22;11242;50.536;12.688;2022-11-13T06:15:51;-2.20;99.90
22153;DHT22;11242;50.536;12.688;2022-11-13T06:18:36;-2.10;99.90
22153;DHT22;11242;50.536;12.688;2022-11-13T06:21:23;-2.10;99.90
22153;DHT22;11242;50.536;12.688;2022-11-13T06:24:10;-2.00;99.90
22153;DHT22;11242;50.536;12.688;2022-11-13T06:26:54;-2.10;99.90
22153;DHT22;11242;50.536;12.688;2022-11-13T06:29:39;-2.10;99.90
22153;DHT22;11242;50.536;12.688;2022-11-13T06:32:23;-2.10;99.90
22153;DHT22;11242;50.536;12.688;2022-11-13T06:35:07;-2.00;99.90
22153;DHT22;11242;50.536;12.688;2022-11-13T06:37:53;-1.90;99.90
22153;DHT22;11242;50.536;12.688;2022-11-13T06:40:38;-2.00;99.90
22153;DHT22;11242;50.536;12.688;2022-11-13T06:43:22;-1.90;99.90
22153;DHT22;11242;50.536;12.688;2022-11-13T06:46:13;-1.80;99.90
22153;DHT22;11242;50.536;12.688;2022-11-13T06:48:58;-1.70;99.90
22153;DHT22;11242;50.536;12.688;2022-11-13T06:51:42;-1.50;99.90
22153;DHT22;11242;50.536;12.688;2022-11-13T06:54:26;-1.50;99.90
22153;DHT22;11242;50.536;12.688;2022-11-13T06:57:10;-1.50;99.90
22153;DHT22;11242;50.536;12.688;2022-11-13T06:59:55;-1.50;99.90
22153;DHT22;11242;50.536;12.688;2022-11-13T07:02:39;-1.50;99.90
22153;DHT22;11242;50.536;12.688;2022-11-13T07:05:23;-1.60;99.90
22153;DHT22;11242;50.536;12.688;2022-11-13T07:08:07;-1.60;99.90
22153;DHT22;11242;50.536;12.688;2022-11-13T07:10:53;-1.60;99.90
22153;DHT22;11242;50.536;12.688;2022-11-13T07:13:38;-1.60;99.90
22153;DHT22;11242;50.536;12.688;2022-11-13T07:16:22;-1.60;99.90
22153;DHT22;11242;50.536;12.688;2022-11-13T07:19:07;-1.50;99.90
22153;DHT22;11242;50.536;12.688;2022-11-13T07:21:51;-1.50;99.90
22153;DHT22;11242;50.536;12.688;2022-11-13T07:24:35;-1.40;99.90
22153;DHT22;11242;50.536;12.688;2022-11-13T07:27:19;-0.40;99.90
22153;DHT22;11242;50.536;12.688;2022-11-13T07:30:04;2.00;99.90
22153;DHT22;11242;50.536;12.688;2022-11-13T07:32:48;4.10;99.90
22153;DHT22;11242;50.536;12.688;2022-11-13T07:35:32;5.60;99.90
22153;DHT22;11242;50.536;12.688;2022-11-13T07:38:16;6.50;99.90
22153;DHT22;11242;50.536;12.688;2022-11-13T07:41:01;6.90;99.90
22153;DHT22;11242;50.536;12.688;2022-11-13T07:43:45;8.10;99.90
22153;DHT22;11242;50.536;12.688;2022-11-13T07:46:29;9.10;99.90
22153;DHT22;11242;50.536;12.688;2022-11-13T07:49:14;10.00;99.90
22153;DHT22;11242;50.536;12.688;2022-11-13T07:51:58;10.40;99.90
22153;DHT22;11242;50.536;12.688;2022-11-13T07:54:42;10.40;98.30
22153;DHT22;11242;50.536;12.688;2022-11-13T07:57:27;11.20;96.10
22153;DHT22;11242;50.536;12.688;2022-11-13T08:00:11;11.50;92.00
22153;DHT22;11242;50.536;12.688;2022-11-13T08:02:56;11.30;92.80
22153;DHT22;11242;50.536;12.688;2022-11-13T08:05:41;11.90;90.50
22153;DHT22;11242;50.536;12.688;2022-11-13T08:08:26;11.50;89.50
22153;DHT22;11242;50.536;12.688;2022-11-13T08:11:09;11.50;88.90
22153;DHT22;11242;50.536;12.688;2022-11-13T08:13:54;11.50;89.30
22153;DHT22;11242;50.536;12.688;2022-11-13T08:16:39;12.00;89.00
22153;DHT22;11242;50.536;12.688;2022-11-13T08:19:23;12.30;87.50
22153;DHT22;11242;50.536;12.688;2022-11-13T08:22:07;12.80;89.60
22153;DHT22;11242;50.536;12.688;2022-11-13T08:24:51;13.60;83.60
22153;DHT22;11242;50.536;12.688;2022-11-13T08:27:36;14.10;81.00
22153;DHT22;11242;50.536;12.688;2022-11-13T08:30:21;14.50;80.00
22153;DHT22;11242;50.536;12.688;2022-11-13T08:33:06;14.80;76.80
22153;DHT22;11242;50.536;12.688;2022-11-13T08:35:57;14.90;69.70
22153;DHT22;11242;50.536;12.688;2022-11-13T08:38:41;14.50;73.80
22153;DHT22;11242;50.536;12.688;2022-11-13T08:41:26;14.90;71.00
22153;DHT22;11242;50.536;12.688;2022-11-13T08:44:10;15.30;69.70
22153;DHT22;11242;50.536;12.688;2022-11-13T08:46:55;14.10;69.50
22153;DHT22;11242;50.536;12.688;2022-11-13T08:49:40;11.30;77.50
22153;DHT22;11242;50.536;12.688;2022-11-13T08:52:24;9.00;87.10
22153;DHT22;11242;50.536;12.688;2022-11-13T08:55:08;8.00;91.60
22153;DHT22;11242;50.536;12.688;2022-11-13T08:57:52;7.20;96.00
22153;DHT22;11242;50.536;12.688;2022-11-13T09:00:36;6.80;99.90
22153;DHT22;11242;50.536;12.688;2022-11-13T09:03:21;6.60;99.90
22153;DHT22;11242;50.536;12.688;2022-11-13T09:06:06;6.40;99.90
22153;DHT22;11242;50.536;12.688;2022-11-13T09:08:50;6.40;99.90
22153;DHT22;11242;50.536;12.688;2022-11-13T09:11:34;6.40;99.90
22153;DHT22;11242;50.536;12.688;2022-11-13T09:14:18;6.30;99.90
22153;DHT22;11242;50.536;12.688;2022-11-13T09:17:03;6.40;99.90
22153;DHT22;11242;50.536;12.688;2022-11-13T09:19:47;6.40;99.90
22153;DHT22;11242;50.536;12.688;2022-11-13T09:22:31;6.50;99.90
22153;DHT22;11242;50.536;12.688;2022-11-13T09:25:15;6.50;99.90
22153;DHT22;11242;50.536;12.688;2022-11-13T09:28:00;6.70;99.90
22153;DHT22;11242;50.536;12.688;2022-11-13T09:30:44;6.80;99.90
22153;DHT22;11242;50.536;12.688;2022-11-13T09:33:29;6.90;99.90
22153;DHT22;11242;50.536;12.688;2022-11-13T09:36:14;7.10;99.90
22153;DHT22;11242;50.536;12.688;2022-11-13T09:38:59;7.30;99.90
22153;DHT22;11242;50.536;12.688;2022-11-13T09:41:56;7.50;99.90
22153;DHT22;11242;50.536;12.688;2022-11-13T09:44:51;7.60;99.90
22153;DHT22;11242;50.536;12.688;2022-11-13T09:47:39;7.70;99.90
22153;DHT22;11242;50.536;12.688;2022-11-13T09:50:27;7.90;99.90
22153;DHT22;11242;50.536;12.688;2022-11-13T09:53:12;8.10;99.90
22153;DHT22;11242;50.536;12.688;2022-11-13T09:59:28;8.50;99.90
22153;DHT22;11242;50.536;12.688;2022-11-13T10:02:26;8.60;99.90
22153;DHT22;11242;50.536;12.688;2022-11-13T10:05:35;8.70;99.90
22153;DHT22;11242;50.536;12.688;2022-11-13T10:11:53;8.90;99.90
22153;DHT22;11242;50.536;12.688;2022-11-13T10:14:44;9.10;99.90
22153;DHT22;11242;50.536;12.688;2022-11-13T10:17:39;9.20;99.90
22153;DHT22;11242;50.536;12.688;2022-11-13T10:20:37;9.30;99.90
22153;DHT22;11242;50.536;12.688;2022-11-13T10:23:27;9.50;99.90
22153;DHT22;11242;50.536;12.688;2022-11-13T10:26:17;9.70;99.90
22153;DHT22;11242;50.536;12.688;2022-11-13T10:29:11;9.90;99.90
22153;DHT22;11242;50.536;12.688;2022-11-13T10:31:56;10.10;99.90
22153;DHT22;11242;50.536;12.688;2022-11-13T10:34:47;10.20;99.90
22153;DHT22;11242;50.536;12.688;2022-11-13T10:40:37;10.50;99.90
22153;DHT22;11242;50.536;12.688;2022-11-13T10:43:24;10.50;99.90
22153;DHT22;11242;50.536;12.688;2022-11-13T10:46:19;10.60;99.90
22153;DHT22;11242;50.536;12.688;2022-11-13T10:49:19;10.70;98.60
22153;DHT22;11242;50.536;12.688;2022-11-13T10:52:11;10.90;97.30
22153;DHT22;11242;50.536;12.688;2022-11-13T10:58:14;11.00;96.00
22153;DHT22;11242;50.536;12.688;2022-11-13T11:00:59;11.00;96.30
22153;DHT22;11242;50.536;12.688;2022-11-13T11:03:49;11.20;95.60
22153;DHT22;11242;50.536;12.688;2022-11-13T11:06:36;11.30;94.60
22153;DHT22;11242;50.536;12.688;2022-11-13T11:09:25;11.50;95.70
22153;DHT22;11242;50.536;12.688;2022-11-13T11:15:20;11.60;95.60
22153;DHT22;11242;50.536;12.688;2022-11-13T11:18:23;11.60;95.60
22153;DHT22;11242;50.536;12.688;2022-11-13T11:21:13;11.60;96.00
22153;DHT22;11242;50.536;12.688;2022-11-13T11:24:18;11.60;96.00
22153;DHT22;11242;50.536;12.688;2022-11-13T11:27:16;11.70;95.80
22153;DHT22;11242;50.536;12.688;2022-11-13T11:30:17;11.80;96.60
22153;DHT22;11242;50.536;12.688;2022-11-13T11:33:29;11.90;96.30
22153;DHT22;11242;50.536;12.688;2022-11-13T11:36:34;12.00;96.40
22153;DHT22;11242;50.536;12.688;2022-11-13T11:42:37;12.30;96.60
22153;DHT22;11242;50.536;12.688;2022-11-13T11:45:28;12.40;96.30
22153;DHT22;11242;50.536;12.688;2022-11-13T11:48:16;12.50;96.80
22153;DHT22;11242;50.536;12.688;2022-11-13T11:54:25;12.80;96.50
22153;DHT22;11242;50.536;12.688;2022-11-13T12:00:23;13.80;93.20
22153;DHT22;11242;50.536;12.688;2022-11-13T12:09:40;14.40;91.90
22153;DHT22;11242;50.536;12.688;2022-11-13T12:15:50;14.50;91.90
22153;DHT22;11242;50.536;12.688;2022-11-13T12:25:17;14.50;90.60
22153;DHT22;11242;50.536;12.688;2022-11-13T12:33:50;14.60;88.30
22153;DHT22;11242;50.536;12.688;2022-11-13T12:36:35;14.70;89.20
22153;DHT22;11242;50.536;12.688;2022-11-13T12:39:49;14.80;87.60
22153;DHT22;11242;50.536;12.688;2022-11-13T12:42:41;14.60;87.70
22153;DHT22;11242;50.536;12.688;2022-11-13T12:48:25;14.30;90.10
22153;DHT22;11242;50.536;12.688;2022-11-13T12:51:12;14.30;91.00
22153;DHT22;11242;50.536;12.688;2022-11-13T12:53:57;14.30;91.70
22153;DHT22;11242;50.536;12.688;2022-11-13T12:56:41;14.10;92.50
22153;DHT22;11242;50.536;12.688;2022-11-13T12:59:35;14.20;92.40
22153;DHT22;11242;50.536;12.688;2022-11-13T13:05:37;14.10;93.00
22153;DHT22;11242;50.536;12.688;2022-11-13T13:11:53;14.40;90.90
22153;DHT22;11242;50.536;12.688;2022-11-13T13:14:59;14.60;88.40
22153;DHT22;11242;50.536;12.688;2022-11-13T13:17:45;14.70;85.30
22153;DHT22;11242;50.536;12.688;2022-11-13T13:20:35;14.60;83.50
22153;DHT22;11242;50.536;12.688;2022-11-13T13:23:26;14.50;81.30
22153;DHT22;11242;50.536;12.688;2022-11-13T13:29:15;14.40;75.30
22153;DHT22;11242;50.536;12.688;2022-11-13T13:32:06;14.20;75.00
22153;DHT22;11242;50.536;12.688;2022-11-13T13:35:10;14.20;73.60
22153;DHT22;11242;50.536;12.688;2022-11-13T13:41:15;13.70;72.50
22153;DHT22;11242;50.536;12.688;2022-11-13T13:44:28;13.70;72.80
22153;DHT22;11242;50.536;12.688;2022-11-13T13:47:31;13.60;68.90
22153;DHT22;11242;50.536;12.688;2022-11-13T13:50:30;13.70;67.10
22153;DHT22;11242;50.536;12.688;2022-11-13T13:53:21;13.60;67.00
22153;DHT22;11242;50.536;12.688;2022-11-13T13:56:09;13.50;68.00
22153;DHT22;11242;50.536;12.688;2022-11-13T13:58:54;13.30;69.70
22153;DHT22;11242;50.536;12.688;2022-11-13T14:01:38;13.00;69.30
22153;DHT22;11242;50.536;12.688;2022-11-13T14:04:25;13.00;68.50
22153;DHT22;11242;50.536;12.688;2022-11-13T14:07:27;12.90;69.80
22153;DHT22;11242;50.536;12.688;2022-11-13T14:12:55;12.40;70.60
22153;DHT22;11242;50.536;12.688;2022-11-13T14:15:39;12.20;71.80
22153;DHT22;11242;50.536;12.688;2022-11-13T14:18:24;12.10;73.30
22153;DHT22;11242;50.536;12.688;2022-11-13T14:21:17;12.00;73.50
22153;DHT22;11242;50.536;12.688;2022-11-13T14:24:04;11.90;74.80
22153;DHT22;11242;50.536;12.688;2022-11-13T14:26:53;11.80;75.20
22153;DHT22;11242;50.536;12.688;2022-11-13T14:29:47;11.70;75.30
22153;DHT22;11242;50.536;12.688;2022-11-13T14:32:32;11.70;76.30
22153;DHT22;11242;50.536;12.688;2022-11-13T14:35:22;11.50;78.40
22153;DHT22;11242;50.536;12.688;2022-11-13T14:38:18;11.20;80.40
22153;DHT22;11242;50.536;12.688;2022-11-13T14:41:03;10.90;82.10
22153;DHT22;11242;50.536;12.688;2022-11-13T14:43:50;10.50;85.20
22153;DHT22;11242;50.536;12.688;2022-11-13T14:46:36;10.40;87.40
22153;DHT22;11242;50.536;12.688;2022-11-13T14:49:31;10.30;89.80
22153;DHT22;11242;50.536;12.688;2022-11-13T14:52:26;10.10;90.40
22153;DHT22;11242;50.536;12.688;2022-11-13T14:55:23;10.20;90.90
22153;DHT22;11242;50.536;12.688;2022-11-13T14:58:11;10.00;92.00
22153;DHT22;11242;50.536;12.688;2022-11-13T15:00:58;10.00;92.30
22153;DHT22;11242;50.536;12.688;2022-11-13T15:03:44;9.80;93.50
22153;DHT22;11242;50.536;12.688;2022-11-13T15:06:39;9.50;99.90
22153;DHT22;11242;50.536;12.688;2022-11-13T15:09:24;9.10;99.90
22153;DHT22;11242;50.536;12.688;2022-11-13T15:12:11;8.70;99.90
22153;DHT22;11242;50.536;12.688;2022-11-13T15:14:55;8.40;99.90
22153;DHT22;11242;50.536;12.688;2022-11-13T15:17:39;8.10;99.90
22153;DHT22;11242;50.536;12.688;2022-11-13T15:20:27;7.80;99.90
22153;DHT22;11242;50.536;12.688;2022-11-13T15:23:13;7.60;99.90
22153;DHT22;11242;50.536;12.688;2022-11-13T15:25:58;7.40;99.90
22153;DHT22;11242;50.536;12.688;2022-11-13T15:28:42;7.30;99.90
22153;DHT22;11242;50.536;12.688;2022-11-13T15:31:39;7.10;99.90
22153;DHT22;11242;50.536;12.688;2022-11-13T15:34:23;7.00;99.90
22153;DHT22;11242;50.536;12.688;2022-11-13T15:37:13;6.80;99.90
22153;DHT22;11242;50.536;12.688;2022-11-13T15:39:57;6.70;99.90
22153;DHT22;11242;50.536;12.688;2022-11-13T15:42:42;6.60;99.90
22153;DHT22;11242;50.536;12.688;2022-11-13T15:45:26;6.40;99.90
22153;DHT22;11242;50.536;12.688;2022-11-13T15:48:11;6.20;99.90
22153;DHT22;11242;50.536;12.688;2022-11-13T15:50:56;6.10;99.90
22153;DHT22;11242;50.536;12.688;2022-11-13T15:53:41;6.10;99.90
22153;DHT22;11242;50.536;12.688;2022-11-13T15:56:26;6.00;99.90
22153;DHT22;11242;50.536;12.688;2022-11-13T15:59:12;5.90;99.90
22153;DHT22;11242;50.536;12.688;2022-11-13T16:01:56;5.80;99.90
22153;DHT22;11242;50.536;12.688;2022-11-13T16:04:40;5.70;99.90
22153;DHT22;11242;50.536;12.688;2022-11-13T16:07:26;5.60;99.90
22153;DHT22;11242;50.536;12.688;2022-11-13T16:10:13;5.50;99.90
22153;DHT22;11242;50.536;12.688;2022-11-13T16:12:57;5.40;99.90
22153;DHT22;11242;50.536;12.688;2022-11-13T16:15:41;5.40;99.90
22153;DHT22;11242;50.536;12.688;2022-11-13T16:18:28;5.30;99.90
22153;DHT22;11242;50.536;12.688;2022-11-13T16:21:13;5.40;99.90
22153;DHT22;11242;50.536;12.688;2022-11-13T16:23:58;5.20;99.90
22153;DHT22;11242;50.536;12.688;2022-11-13T16:26:46;5.10;99.90
22153;DHT22;11242;50.536;12.688;2022-11-13T16:29:31;5.00;99.90
22153;DHT22;11242;50.536;12.688;2022-11-13T16:32:16;4.90;99.90
22153;DHT22;11242;50.536;12.688;2022-11-13T16:35:00;4.80;99.90
22153;DHT22;11242;50.536;12.688;2022-11-13T16:37:44;4.60;99.90
22153;DHT22;11242;50.536;12.688;2022-11-13T16:40:29;4.50;99.90
22153;DHT22;11242;50.536;12.688;2022-11-13T16:43:14;4.40;99.90
22153;DHT22;11242;50.536;12.688;2022-11-13T16:45:59;4.40;99.90
22153;DHT22;11242;50.536;12.688;2022-11-13T16:48:45;4.30;99.90
22153;DHT22;11242;50.536;12.688;2022-11-13T16:51:29;4.30;99.90
22153;DHT22;11242;50.536;12.688;2022-11-13T16:54:13;4.20;99.90
22153;DHT22;11242;50.536;12.688;2022-11-13T16:56:58;4.00;99.90
22153;DHT22;11242;50.536;12.688;2022-11-13T16:59:42;3.90;99.90
22153;DHT22;11242;50.536;12.688;2022-11-13T17:02:26;3.80;99.90
22153;DHT22;11242;50.536;12.688;2022-11-13T17:05:14;3.60;99.90
22153;DHT22;11242;50.536;12.688;2022-11-13T17:07:59;3.50;99.90
22153;DHT22;11242;50.536;12.688;2022-11-13T17:10:44;3.40;99.90
22153;DHT22;11242;50.536;12.688;2022-11-13T17:13:28;3.30;99.90
22153;DHT22;11242;50.536;12.688;2022-11-13T17:16:12;3.20;99.90
22153;DHT22;11242;50.536;12.688;2022-11-13T17:18:58;3.20;99.90
22153;DHT22;11242;50.536;12.688;2022-11-13T17:21:43;3.20;99.90
22153;DHT22;11242;50.536;12.688;2022-11-13T17:24:27;3.30;99.90
22153;DHT22;11242;50.536;12.688;2022-11-13T17:27:11;3.30;99.90
22153;DHT22;11242;50.536;12.688;2022-11-13T17:29:55;3.30;99.90
22153;DHT22;11242;50.536;12.688;2022-11-13T17:32:39;3.30;99.90
22153;DHT22;11242;50.536;12.688;2022-11-13T17:35:23;3.10;99.90
22153;DHT22;11242;50.536;12.688;2022-11-13T17:38:12;3.00;99.90
22153;DHT22;11242;50.536;12.688;2022-11-13T17:41:05;2.90;99.90
22153;DHT22;11242;50.536;12.688;2022-11-13T17:43:51;2.70;99.90
22153;DHT22;11242;50.536;12.688;2022-11-13T17:46:35;2.60;99.90
22153;DHT22;11242;50.536;12.688;2022-11-13T17:49:19;2.60;99.90
22153;DHT22;11242;50.536;12.688;2022-11-13T17:52:04;2.60;99.90
22153;DHT22;11242;50.536;12.688;2022-11-13T17:54:48;2.60;99.90
22153;DHT22;11242;50.536;12.688;2022-11-13T17:57:33;2.50;99.90
22153;DHT22;11242;50.536;12.688;2022-11-13T18:00:17;2.40;99.90
22153;DHT22;11242;50.536;12.688;2022-11-13T18:03:01;2.40;99.90
22153;DHT22;11242;50.536;12.688;2022-11-13T18:05:46;2.40;99.90
22153;DHT22;11242;50.536;12.688;2022-11-13T18:08:30;2.30;99.90
22153;DHT22;11242;50.536;12.688;2022-11-13T18:11:19;2.30;99.90
22153;DHT22;11242;50.536;12.688;2022-11-13T18:14:04;2.40;99.90
22153;DHT22;11242;50.536;12.688;2022-11-13T18:16:49;2.30;99.90
22153;DHT22;11242;50.536;12.688;2022-11-13T18:19:33;2.20;99.90
22153;DHT22;11242;50.536;12.688;2022-11-13T18:22:17;2.20;99.90
22153;DHT22;11242;50.536;12.688;2022-11-13T18:25:02;2.20;99.90
22153;DHT22;11242;50.536;12.688;2022-11-13T18:27:46;2.20;99.90
22153;DHT22;11242;50.536;12.688;2022-11-13T18:30:31;2.20;99.90
22153;DHT22;11242;50.536;12.688;2022-11-13T18:33:15;2.00;99.90
22153;DHT22;11242;50.536;12.688;2022-11-13T18:35:59;1.90;99.90
22153;DHT22;11242;50.536;12.688;2022-11-13T18:38:44;1.90;99.90
22153;DHT22;11242;50.536;12.688;2022-11-13T18:41:29;1.70;99.90